Time;durP1;ratioP1;P1;durP2;ratioP2;P2;SDS_P1;SDS_P2;PMS_P1;PMS_P2;Temp;Humidity;BMP_temperature;BMP_pressure;BME280_temperature;BME280_humidity;BME280_pressure;Samples;Min_cycle;Max_cycle;Signal;HPM_P1;HPM_P2
2021/12/04 00:00:59;;;;;;;24.15;15.82;;;7.00;84.40;;;;;;4994854;28;98620;-75
2021/12/04 00:03:26;;;;;;;24.25;16.20;;;6.90;85.00;;;;;;4994622;28;99369;-75
2021/12/04 00:05:56;;;;;;;25.67;16.63;;;7.00;85.00;;;;;;4993645;28;120047;-75
2021/12/04 00:08:27;;;;;;;26.35;16.13;;;7.00;84.80;;;;;;4993999;28;98607;-75
2021/12/04 00:10:55;;;;;;;27.50;16.00;;;7.00;84.70;;;;;;4977347;28;98539;-75
2021/12/04 00:13:22;;;;;;;26.83;16.45;;;6.90;85.10;;;;;;4976982;28;99922;-75
2021/12/04 00:15:49;;;;;;;26.80;17.05;;;7.00;84.90;;;;;;4960169;28;98919;-75
2021/12/04 00:18:16;;;;;;;23.83;15.07;;;7.00;84.60;;;;;;4994175;28;99378;-75
2021/12/04 00:20:43;;;;;;;25.63;15.60;;;7.00;84.50;;;;;;4976996;28;98984;-75
2021/12/04 00:23:10;;;;;;;23.30;15.20;;;7.00;84.80;;;;;;4994348;28;99108;-75
2021/12/04 00:25:40;;;;;;;24.50;15.77;;;7.00;84.60;;;;;;4992536;28;111812;-75
2021/12/04 00:28:07;;;;;;;23.42;15.20;;;7.00;84.60;;;;;;4994453;28;98625;-75
2021/12/04 00:30:35;;;;;;;26.35;16.10;;;7.00;84.80;;;;;;4976536;28;98558;-76
2021/12/04 00:33:15;;;;;;;26.15;16.63;;;7.10;84.50;;;;;;4994009;28;99076;-75
2021/12/04 00:36:25;;;;;;;21.73;15.02;;;7.00;84.20;;;;;;4994320;28;98933;-75
2021/12/04 00:49:19;;;;;;;25.20;15.48;;;7.00;84.90;;;;;;4994233;28;98410;-75
2021/12/04 00:51:55;;;;;;;24.25;15.60;;;7.00;84.60;;;;;;4993764;28;98487;-75
2021/12/04 00:54:23;;;;;;;25.13;15.27;;;7.00;84.80;;;;;;4993895;28;99063;-75
2021/12/04 00:56:52;;;;;;;26.98;15.98;;;7.00;84.50;;;;;;4975194;28;104881;-75
2021/12/04 00:59:19;;;;;;;25.65;14.63;;;7.00;84.50;;;;;;4976253;28;98436;-75
2021/12/04 01:01:46;;;;;;;29.20;16.02;;;7.00;84.70;;;;;;4994129;28;97788;-75
2021/12/04 01:04:18;;;;;;;25.98;15.13;;;7.00;84.70;;;;;;4975526;28;100204;-75
2021/12/04 01:06:45;;;;;;;25.02;15.10;;;7.00;84.30;;;;;;4993398;28;98784;-69
2021/12/04 01:09:14;;;;;;;24.83;15.73;;;7.00;84.70;;;;;;4992642;28;102187;-70
2021/12/04 01:11:42;;;;;;;22.70;14.07;;;7.00;84.80;;;;;;4993940;28;98571;-75
2021/12/04 01:14:11;;;;;;;23.50;14.82;;;7.00;84.30;;;;;;4993327;28;99535;-75
2021/12/04 01:16:38;;;;;;;24.85;15.30;;;7.00;84.10;;;;;;4993106;28;98828;-75
2021/12/04 01:19:06;;;;;;;24.52;14.80;;;7.00;84.20;;;;;;4993540;28;98519;-75
2021/12/04 01:21:33;;;;;;;25.83;14.43;;;7.00;84.40;;;;;;4993862;28;98591;-75
2021/12/04 01:24:01;;;;;;;25.77;15.70;;;7.00;84.60;;;;;;4993000;28;99126;-75
2021/12/04 01:26:28;;;;;;;24.60;15.57;;;7.00;84.40;;;;;;4958921;28;114682;-69
2021/12/04 01:28:55;;;;;;;24.50;14.32;;;7.00;84.70;;;;;;4993435;28;98729;-75
2021/12/04 01:31:22;;;;;;;25.40;14.88;;;7.00;84.40;;;;;;4975388;28;98645;-75
2021/12/04 01:33:49;;;;;;;25.30;14.73;;;7.00;84.70;;;;;;4992701;28;99935;-75
2021/12/04 01:36:17;;;;;;;25.30;15.02;;;7.00;84.40;;;;;;4993045;28;99844;-75
2021/12/04 01:38:44;;;;;;;24.92;15.10;;;7.00;84.60;;;;;;4974999;28;103723;-75
2021/12/04 01:41:11;;;;;;;25.20;15.77;;;7.00;84.30;;;;;;4975549;28;98571;-69
2021/12/04 01:43:39;;;;;;;25.77;15.75;;;7.00;84.30;;;;;;4993104;28;99035;-69
2021/12/04 01:46:06;;;;;;;25.33;15.75;;;7.10;84.20;;;;;;4992854;28;98950;-69
2021/12/04 01:48:33;;;;;;;24.38;15.13;;;7.00;84.00;;;;;;4975487;28;98659;-69
2021/12/04 01:51:00;;;;;;;25.73;15.65;;;7.00;84.20;;;;;;4993551;28;97798;-69
2021/12/04 01:53:27;;;;;;;21.52;14.60;;;7.00;84.20;;;;;;4992950;28;99157;-69
2021/12/04 01:55:56;;;;;;;23.45;15.25;;;7.00;83.90;;;;;;4973542;28;123797;-69
2021/12/04 01:58:25;;;;;;;23.98;16.35;;;7.00;84.00;;;;;;4992311;28;99620;-69
2021/12/04 02:00:53;;;;;;;21.90;15.18;;;7.00;83.90;;;;;;4958773;28;98555;-70
2021/12/04 02:03:21;;;;;;;23.98;15.80;;;7.00;83.90;;;;;;4992680;28;99273;-76
2021/12/04 02:05:48;;;;;;;21.23;14.63;;;7.00;83.90;;;;;;4974349;28;107115;-75
2021/12/04 02:08:20;;;;;;;24.85;16.00;;;7.00;83.90;;;;;;4992507;28;98499;-75
2021/12/04 02:10:49;;;;;;;22.27;14.82;;;7.10;83.90;;;;;;4975078;28;98921;-75
2021/12/04 02:13:16;;;;;;;24.42;16.05;;;7.10;83.70;;;;;;4992470;28;99052;-75
2021/12/04 02:15:45;;;;;;;21.77;15.80;;;7.00;83.50;;;;;;4992921;28;98927;-75
2021/12/04 02:18:14;;;;;;;22.50;15.20;;;7.00;83.30;;;;;;4991842;28;107799;-75
2021/12/04 02:20:41;;;;;;;24.15;14.85;;;7.00;83.70;;;;;;4958679;28;98584;-75
2021/12/04 02:23:09;;;;;;;23.27;15.48;;;7.00;83.70;;;;;;4973811;28;99787;-75
2021/12/04 02:25:38;;;;;;;19.38;13.70;;;7.00;83.90;;;;;;4992347;28;99635;-75
2021/12/04 02:28:07;;;;;;;19.10;14.82;;;7.00;83.50;;;;;;4992487;28;98680;-69
2021/12/04 02:30:37;;;;;;;19.58;13.75;;;7.00;84.20;;;;;;4992822;28;98550;-69
2021/12/04 02:33:11;;;;;;;24.40;15.15;;;7.00;83.60;;;;;;4974485;28;99258;-69
2021/12/04 02:35:40;;;;;;;;;;;7.00;83.70;;;;;;4992499;28;99069;-69
2021/12/04 02:38:07;;;;;;;19.58;13.43;;;7.00;83.60;;;;;;4993972;28;98671;-75
2021/12/04 02:40:34;;;;;;;19.45;14.93;;;7.00;83.60;;;;;;4974708;28;103695;-75
2021/12/04 02:43:01;;;;;;;20.13;14.07;;;7.00;83.70;;;;;;4974099;28;99211;-75
2021/12/04 02:45:28;;;;;;;19.27;13.70;;;7.00;84.00;;;;;;4992130;28;98938;-76
2021/12/04 02:47:56;;;;;;;16.08;12.05;;;7.00;83.90;;;;;;4992121;28;99236;-76
2021/12/04 02:50:23;;;;;;;16.20;12.30;;;7.00;83.40;;;;;;4992225;28;98559;-75
2021/12/04 02:52:49;;;;;;;16.88;12.90;;;7.00;83.20;;;;;;4991861;28;99069;-75
2021/12/04 02:55:18;;;;;;;19.23;13.48;;;7.00;83.70;;;;;;4973589;28;100059;-75
2021/12/04 02:57:45;;;;;;;17.25;12.20;;;7.00;83.40;;;;;;4990224;28;103830;-75
2021/12/04 03:00:22;;;;;;;15.93;12.10;;;7.00;83.10;;;;;;4992211;28;98945;-76
2021/12/04 03:02:50;;;;;;;15.63;11.55;;;7.00;83.00;;;;;;4973652;28;100225;-75
2021/12/04 03:05:27;;;;;;;15.55;11.48;;;7.00;83.20;;;;;;4991852;28;99087;-74
2021/12/04 03:07:57;;;;;;;15.88;11.23;;;7.00;83.10;;;;;;4935666;28;98692;-75
2021/12/04 03:10:26;;;;;;;14.88;11.63;;;7.00;82.90;;;;;;4951688;28;98532;-75
2021/12/04 03:12:53;;;;;;;14.15;10.63;;;7.00;83.20;;;;;;4966745;28;101938;-75
2021/12/04 03:15:21;;;;;;;13.77;10.95;;;7.00;83.30;;;;;;4951819;28;99675;-75
2021/12/04 03:17:49;;;;;;;15.60;11.40;;;7.00;83.70;;;;;;4952540;28;98556;-75
2021/12/04 03:20:17;;;;;;;11.73;10.10;;;7.00;83.30;;;;;;4934377;28;103865;-69
2021/12/04 03:22:46;;;;;;;11.63;10.23;;;7.00;83.20;;;;;;4966882;28;106726;-69
2021/12/04 03:25:17;;;;;;;12.43;10.43;;;7.00;83.10;;;;;;4966767;28;100110;-75
2021/12/04 03:27:47;;;;;;;13.88;9.98;;;7.00;83.30;;;;;;4952434;28;98546;-75
2021/12/04 03:41:16;;;;;;;10.50;8.65;;;7.00;82.90;;;;;;4948151;28;98505;-70
2021/12/04 03:43:44;;;;;;;10.88;8.95;;;6.90;83.10;;;;;;4932889;28;99063;-69
2021/12/04 03:46:15;;;;;;;9.30;8.32;;;6.90;83.20;;;;;;4931110;28;103964;-69
2021/12/04 03:51:10;;;;;;;11.45;9.23;;;6.90;83.30;;;;;;4947940;28;98819;-69
2021/12/04 03:53:38;;;;;;;10.73;9.07;;;6.90;83.10;;;;;;4932863;28;99135;-75
2021/12/04 03:56:05;;;;;;;13.20;9.48;;;6.90;83.70;;;;;;4933004;28;100775;-75
2021/12/04 03:58:32;;;;;;;10.63;9.45;;;6.90;83.00;;;;;;4932969;28;98469;-75
2021/12/04 04:00:59;;;;;;;11.45;9.57;;;6.90;83.30;;;;;;4932927;28;98531;-75
2021/12/04 04:03:27;;;;;;;11.82;9.60;;;6.90;83.30;;;;;;4931018;28;102632;-75
2021/12/04 04:05:55;;;;;;;11.93;10.05;;;6.90;82.80;;;;;;4947551;28;100994;-69
2021/12/04 04:08:22;;;;;;;13.52;9.70;;;6.90;82.90;;;;;;4929968;28;101175;-69
2021/12/04 04:10:52;;;;;;;10.38;8.82;;;6.90;83.00;;;;;;4948149;28;98901;-69
2021/12/04 04:13:19;;;;;;;11.52;9.50;;;7.00;83.00;;;;;;4930992;28;102013;-69
2021/12/04 04:15:47;;;;;;;14.02;9.75;;;6.90;82.90;;;;;;4932481;28;98905;-69
2021/12/04 04:18:14;;;;;;;13.15;9.98;;;6.90;83.20;;;;;;4932823;28;98548;-75
2021/12/04 04:20:41;;;;;;;13.77;8.98;;;6.90;83.30;;;;;;4932817;28;97794;-75
2021/12/04 04:23:08;;;;;;;14.38;10.40;;;6.90;83.60;;;;;;4934344;28;100460;-75
2021/12/04 04:25:36;;;;;;;13.43;9.88;;;6.90;83.50;;;;;;4934116;28;98862;-75
2021/12/04 04:28:03;;;;;;;13.15;9.50;;;6.90;83.10;;;;;;4934800;28;107452;-75
2021/12/04 04:30:30;;;;;;;12.82;9.82;;;6.90;83.20;;;;;;4936086;28;98828;-75
2021/12/04 04:32:57;;;;;;;11.88;9.23;;;6.90;83.10;;;;;;4935770;28;99160;-75
2021/12/04 04:35:26;;;;;;;12.52;9.65;;;7.00;83.10;;;;;;4934332;28;98858;-75
2021/12/04 05:11:09;;;;;;;13.65;8.60;;;6.90;83.00;;;;;;4956800;28;98666;-75
2021/12/04 05:13:36;;;;;;;14.88;9.05;;;6.90;83.10;;;;;;4956933;28;97718;-75
2021/12/04 05:18:50;;;;;;;11.07;8.38;;;6.90;82.90;;;;;;4974182;28;98897;-75
2021/12/04 05:21:17;;;;;;;10.38;8.70;;;6.90;83.10;;;;;;4957889;28;99381;-75
2021/12/04 05:23:51;;;;;;;10.77;8.52;;;7.00;83.00;;;;;;4974328;28;98545;-75
2021/12/04 05:26:25;;;;;;;15.07;8.77;;;6.90;82.90;;;;;;4973864;28;101372;-75
2021/12/04 05:28:53;;;;;;;13.68;9.50;;;6.90;83.40;;;;;;4955951;28;100087;-75
2021/12/04 05:31:21;;;;;;;12.95;8.55;;;6.90;82.80;;;;;;4973571;28;101832;-75
2021/12/04 05:33:49;;;;;;;12.15;9.15;;;6.90;82.80;;;;;;4973584;28;98486;-75
2021/12/04 05:36:16;;;;;;;11.98;8.77;;;7.00;82.90;;;;;;4955957;28;103995;-75
2021/12/04 05:38:43;;;;;;;14.50;8.52;;;6.90;82.80;;;;;;4974048;28;98862;-75
2021/12/04 05:41:10;;;;;;;12.82;9.65;;;6.90;82.80;;;;;;4973818;28;98525;-75
2021/12/04 05:43:38;;;;;;;13.50;9.25;;;6.90;82.80;;;;;;4956342;28;98894;-75
2021/12/04 05:46:17;;;;;;;13.48;9.32;;;6.90;82.80;;;;;;4973221;28;100195;-75
2021/12/04 05:54:07;;;;;;;13.63;8.73;;;7.00;82.70;;;;;;4973492;28;98588;-75
2021/12/04 05:56:33;;;;;;;14.93;9.38;;;7.00;82.60;;;;;;4973146;28;99124;-75
2021/12/04 05:59:00;;;;;;;12.27;9.23;;;7.00;82.70;;;;;;4973314;28;98923;-75
2021/12/04 06:01:28;;;;;;;13.20;9.35;;;7.00;82.90;;;;;;4972953;28;104157;-75
2021/12/04 06:03:56;;;;;;;15.75;9.93;;;7.00;82.70;;;;;;4973910;28;97808;-75
2021/12/04 06:06:23;;;;;;;14.45;10.20;;;7.00;83.30;;;;;;4973143;28;99177;-75
2021/12/04 06:08:50;;;;;;;15.63;10.48;;;7.00;82.90;;;;;;4972522;28;99068;-75
2021/12/04 06:11:17;;;;;;;17.10;9.95;;;7.00;83.10;;;;;;4955253;28;99338;-75
2021/12/04 06:13:44;;;;;;;15.02;9.73;;;7.00;83.10;;;;;;4955510;28;98657;-76
2021/12/04 06:16:12;;;;;;;17.17;9.90;;;7.00;83.20;;;;;;4973292;28;99206;-75
2021/12/04 06:18:41;;;;;;;17.77;9.57;;;6.90;83.40;;;;;;4972680;28;100006;-75
2021/12/04 06:23:53;;;;;;;13.18;9.38;;;6.90;83.80;;;;;;4973645;28;98523;-75
2021/12/04 06:26:20;;;;;;;14.85;10.23;;;6.80;84.40;;;;;;4955264;28;100170;-75
2021/12/04 06:28:48;;;;;;;13.98;9.32;;;6.80;84.50;;;;;;4972594;28;98811;-75
2021/12/04 06:31:15;;;;;;;13.45;9.70;;;6.80;84.20;;;;;;4955659;28;98507;-75
2021/12/04 06:33:42;;;;;;;15.13;9.82;;;6.80;84.30;;;;;;4972297;28;108636;-75
2021/12/04 06:36:10;;;;;;;15.55;10.93;;;6.80;84.60;;;;;;4955313;28;99807;-75
2021/12/04 06:38:37;;;;;;;14.40;10.15;;;6.80;84.50;;;;;;4971950;28;99745;-75
2021/12/04 06:41:05;;;;;;;14.95;10.50;;;6.80;84.40;;;;;;4955137;28;98533;-75
2021/12/04 06:43:33;;;;;;;13.05;9.73;;;6.80;84.60;;;;;;4972016;28;98976;-75
2021/12/04 06:46:02;;;;;;;13.75;9.60;;;6.80;84.30;;;;;;4972618;28;99213;-75
2021/12/04 06:48:43;;;;;;;12.07;9.20;;;6.80;84.00;;;;;;4971833;28;117150;-75
2021/12/04 06:53:46;;;;;;;14.40;9.68;;;6.80;83.80;;;;;;4972992;28;97780;-75
2021/12/04 06:56:13;;;;;;;14.20;9.82;;;6.80;83.70;;;;;;4972422;28;99163;-75
2021/12/04 06:58:40;;;;;;;13.63;10.07;;;6.80;83.80;;;;;;4972354;28;98952;-75
2021/12/04 07:01:10;;;;;;;14.52;9.57;;;6.80;83.70;;;;;;4972310;28;99805;-75
2021/12/04 07:03:39;;;;;;;12.00;9.48;;;6.90;83.50;;;;;;4972965;28;98599;-69
2021/12/04 07:06:07;;;;;;;13.20;9.82;;;6.90;83.20;;;;;;4972420;28;99280;-69
2021/12/04 07:08:34;;;;;;;12.13;9.43;;;6.90;83.30;;;;;;4971529;28;99871;-69
2021/12/04 07:11:04;;;;;;;12.10;9.55;;;6.90;83.10;;;;;;4972703;28;98411;-69
2021/12/04 07:13:32;;;;;;;12.30;9.40;;;6.90;82.90;;;;;;4972523;28;98588;-69
2021/12/04 07:16:08;;;;;;;12.10;10.15;;;6.90;83.10;;;;;;4972429;28;100107;-69
2021/12/04 07:18:38;;;;;;;13.70;10.15;;;6.90;83.00;;;;;;4972202;28;98896;-69
2021/12/04 07:21:05;;;;;;;13.02;9.95;;;6.90;83.00;;;;;;4972079;28;98442;-69
2021/12/04 07:23:32;;;;;;;11.63;9.50;;;6.90;82.90;;;;;;4972376;28;98543;-69
2021/12/04 07:26:03;;;;;;;11.30;9.43;;;6.90;82.80;;;;;;4971960;28;99846;-69
2021/12/04 07:28:30;;;;;;;13.52;9.20;;;6.90;83.20;;;;;;4972114;28;99506;-69
2021/12/04 07:30:57;;;;;;;12.82;9.63;;;6.90;83.40;;;;;;4972621;28;99009;-69
2021/12/04 07:33:24;;;;;;;12.30;8.73;;;6.90;83.50;;;;;;4954519;28;98603;-69
2021/12/04 07:35:52;;;;;;;12.13;9.52;;;6.90;83.00;;;;;;4971976;28;99342;-69
2021/12/04 07:38:19;;;;;;;13.55;9.63;;;7.00;82.70;;;;;;4971996;28;102966;-69
2021/12/04 07:40:46;;;;;;;11.82;9.48;;;7.00;83.10;;;;;;4954558;28;98637;-69
2021/12/04 07:43:13;;;;;;;11.65;8.75;;;6.90;83.10;;;;;;4972980;28;97784;-70
2021/12/04 07:45:41;;;;;;;11.00;9.07;;;6.90;82.80;;;;;;4938466;28;99124;-69
2021/12/04 07:48:08;;;;;;;13.90;9.80;;;7.00;83.20;;;;;;4971346;28;118769;-69
2021/12/04 07:50:36;;;;;;;11.05;8.68;;;7.00;83.00;;;;;;4971882;28;99288;-69
2021/12/04 07:53:03;;;;;;;24.98;18.38;;;7.00;83.10;;;;;;4972326;28;98973;-69
2021/12/04 07:55:32;;;;;;;47.13;42.15;;;7.00;83.10;;;;;;4971323;28;99280;-69
2021/12/04 07:58:00;;;;;;;32.30;29.38;;;7.00;83.30;;;;;;4957109;28;98983;-75
2021/12/04 08:00:27;;;;;;;15.75;13.40;;;7.00;83.40;;;;;;4975050;28;98542;-75
2021/12/04 08:02:55;;;;;;;15.35;12.90;;;7.00;83.10;;;;;;4974953;28;98540;-75
2021/12/04 08:05:22;;;;;;;17.45;14.95;;;7.00;82.90;;;;;;4974203;28;114537;-75
2021/12/04 08:07:50;;;;;;;20.33;18.23;;;7.00;82.90;;;;;;4956795;28;98921;-75
2021/12/04 08:10:19;;;;;;;17.13;12.20;;;7.00;82.90;;;;;;4941381;28;98643;-75
2021/12/04 08:12:47;;;;;;;13.07;10.35;;;7.00;83.30;;;;;;4974484;28;98596;-75
2021/12/04 08:15:16;;;;;;;13.63;9.98;;;7.00;83.10;;;;;;4973823;28;101543;-76
2021/12/04 08:17:44;;;;;;;13.60;10.38;;;7.00;83.30;;;;;;4974026;28;99551;-69
2021/12/04 08:20:16;;;;;;;13.85;10.13;;;6.90;83.40;;;;;;4974541;28;98449;-70
2021/12/04 08:22:43;;;;;;;13.20;10.18;;;6.90;84.00;;;;;;4974853;28;98568;-69
2021/12/04 08:25:13;;;;;;;12.57;10.18;;;7.00;84.30;;;;;;4973755;28;111378;-69
2021/12/04 08:27:40;;;;;;;13.48;10.68;;;7.00;83.80;;;;;;4973690;28;98878;-69
2021/12/04 08:30:11;;;;;;;13.38;10.02;;;7.00;84.20;;;;;;4957357;28;98557;-70
2021/12/04 08:32:39;;;;;;;12.60;9.90;;;7.10;83.70;;;;;;4957041;28;97851;-76
2021/12/04 08:35:08;;;;;;;15.13;9.90;;;7.10;83.60;;;;;;4974869;28;99221;-75
2021/12/04 08:37:36;;;;;;;16.95;11.65;;;7.10;83.70;;;;;;4973260;28;99988;-76
2021/12/04 08:40:10;;;;;;;13.90;10.75;;;7.20;83.20;;;;;;4973775;28;99200;-76
2021/12/04 08:42:39;;;;;;;52.20;27.25;;;7.20;83.50;;;;;;4974498;28;98538;-75
2021/12/04 08:45:08;;;;;;;30.63;17.88;;;7.20;83.30;;;;;;4973997;28;99148;-75
2021/12/04 08:47:37;;;;;;;53.90;26.38;;;7.20;83.30;;;;;;4974152;28;98963;-76
2021/12/04 08:50:10;;;;;;;21.70;19.17;;;7.30;83.20;;;;;;4956406;28;98511;-75
2021/12/04 08:52:38;;;;;;;22.77;17.00;;;7.30;83.20;;;;;;4974222;28;98504;-76
2021/12/04 08:55:07;;;;;;;27.45;22.77;;;7.30;83.00;;;;;;4973707;28;99088;-76
2021/12/04 08:57:34;;;;;;;22.85;18.88;;;7.30;83.30;;;;;;4974091;28;98790;-76
2021/12/04 09:00:04;;;;;;;21.73;13.77;;;7.40;82.40;;;;;;4973664;28;99005;-76
2021/12/04 09:02:32;;;;;;;22.52;15.43;;;7.40;82.90;;;;;;4956691;28;98546;-75
2021/12/04 09:04:59;;;;;;;18.45;14.82;;;7.50;83.10;;;;;;4972989;28;99873;-76
2021/12/04 09:07:27;;;;;;;47.67;30.02;;;7.50;82.10;;;;;;4972185;28;104605;-75
2021/12/04 09:09:56;;;;;;;48.13;41.95;;;7.50;81.90;;;;;;4973460;28;99030;-76
2021/12/04 09:12:25;;;;;;;39.03;29.77;;;7.50;82.10;;;;;;4956226;28;98540;-75
2021/12/04 09:14:53;;;;;;;30.60;25.08;;;7.50;82.10;;;;;;4973180;28;99253;-76
2021/12/04 09:17:21;;;;;;;24.50;20.25;;;7.50;82.40;;;;;;4973404;28;98801;-76
2021/12/04 09:19:50;;;;;;;20.85;12.85;;;7.50;82.60;;;;;;4972016;28;98602;-75
2021/12/04 09:22:33;;;;;;;20.27;15.85;;;7.60;82.50;;;;;;4974290;28;97708;-76
2021/12/04 09:25:07;;;;;;;17.60;13.88;;;7.60;82.50;;;;;;4973205;28;100211;-76
2021/12/04 10:01:01;;;;;;;13.85;10.18;;;8.00;81.40;;;;;;4954826;28;103151;-76
2021/12/04 10:16:20;;;;;;;24.08;14.57;;;7.80;82.00;;;;;;4954977;28;98086;-69
2021/12/04 10:19:00;;;;;;;26.90;14.93;;;7.90;81.90;;;;;;4972349;28;99114;-69
2021/12/04 10:21:56;;;;;;;25.25;13.82;;;7.80;81.40;;;;;;4972749;28;98839;-69
2021/12/04 10:33:17;;;;;;;29.10;16.58;;;7.70;81.20;;;;;;4945366;28;100516;-69
2021/12/04 10:35:48;;;;;;;29.98;16.58;;;7.70;81.70;;;;;;4972733;28;98921;-69
2021/12/04 10:38:24;;;;;;;32.90;16.75;;;7.70;82.50;;;;;;4972475;28;98561;-69
2021/12/04 10:40:53;;;;;;;29.50;15.98;;;7.80;82.30;;;;;;4954750;28;99256;-69
2021/12/04 10:43:24;;;;;;;28.17;15.10;;;7.80;81.70;;;;;;4971473;28;116063;-69
2021/12/04 10:45:56;;;;;;;31.50;17.33;;;7.90;81.60;;;;;;4972837;28;99207;-70
2021/12/04 10:48:28;;;;;;;34.65;17.52;;;7.90;81.40;;;;;;4972732;28;98559;-69
2021/12/04 10:53:37;;;;;;;67.00;44.92;;;8.00;81.00;;;;;;4954001;28;102214;-70
2021/12/04 10:56:23;;;;;;;31.13;17.05;;;8.00;80.80;;;;;;4972314;28;98541;-69
2021/12/04 10:59:30;;;;;;;30.08;16.70;;;7.90;81.00;;;;;;4972549;28;98454;-69
2021/12/04 11:04:41;;;;;;;39.00;32.90;;;7.80;81.40;;;;;;4971850;28;98872;-70
2021/12/04 11:43:00;;;;;;;26.20;16.35;;;8.30;79.70;;;;;;4975399;28;98527;-69
2021/12/04 11:45:43;;;;;;;23.43;14.70;;;8.30;79.30;;;;;;4974514;28;100035;-69
2021/12/04 11:48:10;;;;;;;23.67;14.73;;;8.30;79.60;;;;;;4957048;28;100826;-69
2021/12/04 11:50:40;;;;;;;26.35;15.63;;;8.10;80.70;;;;;;4974987;28;98606;-69
2021/12/04 11:53:16;;;;;;;24.23;15.25;;;8.20;80.00;;;;;;4974908;28;98509;-69
2021/12/04 11:55:46;;;;;;;24.88;15.85;;;8.20;80.50;;;;;;4974934;28;101914;-69
2021/12/04 11:58:43;;;;;;;22.33;15.55;;;8.10;80.30;;;;;;4974195;28;98955;-70
2021/12/04 12:01:32;;;;;;;24.83;16.17;;;8.10;80.10;;;;;;4956178;28;98991;-69
2021/12/04 12:04:10;;;;;;;139.55;66.43;;;8.10;80.80;;;;;;4975516;28;97710;-69
2021/12/04 12:06:41;;;;;;;47.17;25.77;;;8.10;80.70;;;;;;4974688;28;99767;-69
2021/12/04 12:09:19;;;;;;;26.05;16.60;;;8.10;80.80;;;;;;4974065;28;98873;-69
2021/12/04 12:12:03;;;;;;;27.00;21.88;;;8.10;80.70;;;;;;4974374;28;99310;-69
2021/12/04 12:14:41;;;;;;;24.53;18.20;;;8.10;81.00;;;;;;4974892;28;98553;-69
2021/12/04 12:17:09;;;;;;;25.67;16.30;;;8.00;81.50;;;;;;4974768;28;99180;-69
2021/12/04 12:19:43;;;;;;;32.38;22.02;;;8.00;80.90;;;;;;4973891;28;112653;-69
2021/12/04 12:22:34;;;;;;;84.32;69.75;;;8.00;80.60;;;;;;4974509;28;98499;-69
2021/12/04 12:25:19;;;;;;;27.70;17.30;;;8.00;80.70;;;;;;4974918;28;98484;-69
2021/12/04 12:38:44;;;;;;;33.63;18.65;;;8.10;81.20;;;;;;4973643;28;100237;-69
2021/12/04 12:41:39;;;;;;;33.13;19.55;;;8.10;80.70;;;;;;4974015;28;99647;-69
2021/12/04 12:44:21;;;;;;;38.20;20.30;;;8.10;80.70;;;;;;4974525;28;99328;-69
2021/12/04 12:47:00;;;;;;;37.28;20.30;;;8.10;81.60;;;;;;4956719;28;98597;-69
2021/12/04 12:49:41;;;;;;;36.28;22.05;;;8.10;81.10;;;;;;4973954;28;99058;-69
2021/12/04 12:52:19;;;;;;;42.38;21.10;;;8.00;81.70;;;;;;4955957;28;100293;-69
2021/12/04 12:54:59;;;;;;;45.50;20.65;;;8.00;82.60;;;;;;4974380;28;98452;-69
2021/12/04 12:57:30;;;;;;;45.83;24.95;;;8.00;81.50;;;;;;4973939;28;97756;-69
2021/12/04 13:12:06;;;;;;;55.22;26.58;;;7.90;81.90;;;;;;4973766;28;99175;-69
2021/12/04 13:14:50;;;;;;;54.15;29.42;;;7.80;81.70;;;;;;4971894;28;100083;-69
2021/12/04 13:17:25;;;;;;;39.83;21.00;;;7.90;82.60;;;;;;4973715;28;98511;-69
2021/12/04 13:19:55;;;;;;;41.17;19.55;;;7.90;82.20;;;;;;4974001;28;98469;-69
2021/12/04 13:22:28;;;;;;;47.50;20.80;;;7.80;82.00;;;;;;4973450;28;99000;-69
2021/12/04 13:25:00;;;;;;;39.78;19.60;;;7.80;81.70;;;;;;4973725;28;98961;-69
2021/12/04 13:29:59;;;;;;;41.13;19.77;;;7.90;81.80;;;;;;4955793;28;98654;-69
2021/12/04 13:32:35;;;;;;;36.38;18.98;;;7.90;81.40;;;;;;4971279;28;100814;-69
2021/12/04 13:35:08;;;;;;;38.10;18.73;;;8.00;81.60;;;;;;4973174;28;99849;-69
2021/12/04 13:37:36;;;;;;;41.45;20.08;;;8.00;81.30;;;;;;4973614;28;98543;-69
2021/12/04 13:40:07;;;;;;;37.13;18.52;;;8.00;81.00;;;;;;4973432;28;98525;-69
2021/12/04 13:42:37;;;;;;;39.28;18.25;;;8.00;81.00;;;;;;4972732;28;99423;-69
2021/12/04 13:45:13;;;;;;;35.50;17.05;;;8.00;80.70;;;;;;4972916;28;100014;-69
2021/12/04 13:47:42;;;;;;;32.05;17.45;;;8.00;80.50;;;;;;4956301;28;98524;-70
2021/12/04 13:50:59;;;;;;;33.70;16.70;;;7.90;80.30;;;;;;4973150;28;103697;-69
2021/12/04 13:53:20;;;;;;;34.28;16.95;;;7.90;80.70;;;;;;4962743;28;99149;-69
2021/12/04 13:55:55;;;;;;;32.38;17.17;;;8.00;80.20;;;;;;4971186;28;100127;-69
2021/12/04 13:58:23;;;;;;;36.60;18.75;;;7.90;80.60;;;;;;4972798;28;99341;-69
2021/12/04 14:00:51;;;;;;;37.75;19.17;;;8.00;80.70;;;;;;4973040;28;98589;-69
2021/12/04 14:03:26;;;;;;;39.95;19.92;;;8.00;80.50;;;;;;4972265;28;105193;-69
2021/12/04 14:05:54;;;;;;;43.13;21.02;;;8.00;80.50;;;;;;4973039;28;98910;-69
2021/12/04 14:08:21;;;;;;;37.85;19.75;;;8.00;80.80;;;;;;4973006;28;98611;-69
2021/12/04 14:10:50;;;;;;;37.50;18.25;;;8.00;80.70;;;;;;4973062;28;98497;-70
2021/12/04 14:13:21;;;;;;;35.17;18.77;;;8.00;80.50;;;;;;4972752;28;99005;-69
2021/12/04 14:15:50;;;;;;;40.53;20.20;;;8.00;80.70;;;;;;4973089;28;98958;-70
2021/12/04 14:18:19;;;;;;;44.60;20.85;;;8.00;81.40;;;;;;4971415;28;98630;-69
2021/12/04 14:20:50;;;;;;;44.42;19.95;;;8.00;81.50;;;;;;4954789;28;98557;-69
2021/12/04 14:23:18;;;;;;;44.67;20.08;;;7.90;81.60;;;;;;4972271;28;99879;-69
2021/12/04 14:25:51;;;;;;;41.33;21.08;;;7.90;81.60;;;;;;4972360;28;99647;-69
2021/12/04 14:28:19;;;;;;;43.00;20.37;;;7.90;81.50;;;;;;4972915;28;98801;-69
2021/12/04 14:30:48;;;;;;;45.17;21.70;;;7.80;81.70;;;;;;4971999;28;106079;-69
2021/12/04 14:33:21;;;;;;;45.58;20.02;;;7.80;82.00;;;;;;4972474;28;99207;-69
2021/12/04 14:35:50;;;;;;;41.03;20.80;;;7.80;82.40;;;;;;4972349;28;99044;-69
2021/12/04 14:38:24;;;;;;;50.67;22.15;;;7.80;82.80;;;;;;4972624;28;98434;-69
2021/12/04 14:40:53;;;;;;;;;;;7.80;82.60;;;;;;4955865;28;97866;-69
2021/12/04 14:43:23;;;;;;;50.40;21.50;;;7.70;82.20;;;;;;4973834;28;99349;-69
2021/12/04 14:45:55;;;;;;;44.20;20.90;;;7.80;82.20;;;;;;4954741;28;101178;-69
2021/12/04 14:48:45;;;;;;;43.63;21.15;;;7.80;82.00;;;;;;4972332;28;99737;-69
2021/12/04 14:51:16;;;;;;;41.53;20.38;;;7.90;81.70;;;;;;4972495;28;98503;-69
2021/12/04 14:53:53;;;;;;;40.33;19.40;;;7.80;81.70;;;;;;4954056;28;100503;-69
2021/12/04 14:56:22;;;;;;;39.45;20.02;;;7.80;81.50;;;;;;4972369;28;98911;-69
2021/12/04 14:58:50;;;;;;;41.13;21.20;;;7.90;81.60;;;;;;4972179;28;98561;-69
2021/12/04 15:01:19;;;;;;;38.65;20.63;;;7.80;81.70;;;;;;4954958;28;98620;-69
2021/12/04 15:03:51;;;;;;;39.83;20.40;;;7.80;82.00;;;;;;4971691;28;99116;-69
2021/12/04 15:06:20;;;;;;;38.33;21.08;;;7.80;81.80;;;;;;4971469;28;99385;-69
2021/12/04 15:08:53;;;;;;;39.72;21.08;;;7.80;81.80;;;;;;4954289;28;98570;-69
2021/12/04 15:11:24;;;;;;;41.37;20.57;;;7.80;82.00;;;;;;4972296;28;98447;-69
2021/12/04 15:14:11;;;;;;;41.95;20.60;;;7.70;81.90;;;;;;4971048;28;99913;-69
2021/12/04 15:16:51;;;;;;;41.40;22.10;;;7.70;82.40;;;;;;4971720;28;99621;-69
2021/12/04 15:19:22;;;;;;;46.20;21.98;;;7.70;82.40;;;;;;4972406;28;98561;-68
2021/12/04 15:21:56;;;;;;;49.15;23.13;;;7.70;82.70;;;;;;4954185;28;98624;-69
2021/12/04 15:24:36;;;;;;;45.10;21.63;;;7.70;82.70;;;;;;4971921;28;99759;-69
2021/12/04 15:27:18;;;;;;;43.60;24.00;;;7.70;83.30;;;;;;4971622;28;99943;-69
2021/12/04 15:29:48;;;;;;;46.95;23.30;;;7.70;83.10;;;;;;4972195;28;98806;-69
2021/12/04 15:32:19;;;;;;;54.50;24.50;;;7.60;82.90;;;;;;4971924;28;101878;-69
2021/12/04 15:34:54;;;;;;;48.97;24.20;;;7.60;82.90;;;;;;4971639;28;99076;-69
2021/12/04 15:37:48;;;;;;;51.22;26.13;;;7.60;82.80;;;;;;4971746;28;99049;-69
2021/12/04 15:40:30;;;;;;;48.20;24.17;;;7.60;82.90;;;;;;4970065;28;99233;-69
2021/12/04 15:43:16;;;;;;;46.78;24.10;;;7.60;83.20;;;;;;4971926;28;98626;-69
2021/12/04 15:54:02;;;;;;;45.45;24.75;;;7.50;83.40;;;;;;4971897;28;98481;-69
2021/12/04 15:56:44;;;;;;;46.30;24.20;;;7.50;83.70;;;;;;4971567;28;99023;-69
2021/12/04 15:59:17;;;;;;;45.25;25.00;;;7.60;83.80;;;;;;4953888;28;100064;-69
2021/12/04 16:01:45;;;;;;;49.28;26.38;;;7.50;83.40;;;;;;4971470;28;98535;-75
2021/12/04 16:04:27;;;;;;;44.03;25.15;;;7.50;83.40;;;;;;4953828;28;98521;-75
2021/12/04 16:06:56;;;;;;;46.03;27.25;;;7.60;83.50;;;;;;4970796;28;99835;-75
2021/12/04 16:09:38;;;;;;;50.22;25.77;;;7.50;84.00;;;;;;4965988;28;107711;-69
2021/12/04 16:12:09;;;;;;;55.03;29.33;;;7.50;83.80;;;;;;4952157;28;98532;-69
2021/12/04 16:14:51;;;;;;;48.40;27.52;;;7.50;83.90;;;;;;4950465;28;98712;-69
2021/12/04 16:17:18;;;;;;;48.78;27.45;;;7.50;84.10;;;;;;4950882;28;99116;-69